createdAt,value
2022-07-25T00:02:15.118Z,7.53
2022-07-25T00:04:44.141Z,8.30
2022-07-25T00:07:12.343Z,8.40
2022-07-25T00:09:40.249Z,8.00
2022-07-25T00:12:08.541Z,7.73
2022-07-25T00:14:40.609Z,8.13
2022-07-25T00:17:08.490Z,8.13
2022-07-25T00:19:36.380Z,7.80
2022-07-25T00:22:04.279Z,8.00
2022-07-25T00:24:32.355Z,6.90
2022-07-25T00:27:00.333Z,8.83
2022-07-25T00:29:28.160Z,8.80
2022-07-25T00:31:57.397Z,8.97
2022-07-25T00:34:25.227Z,8.60
2022-07-25T00:36:53.879Z,8.57
2022-07-25T00:39:21.771Z,8.80
2022-07-25T00:41:49.615Z,8.40
2022-07-25T00:44:25.190Z,7.87
2022-07-25T00:46:54.119Z,8.90
2022-07-25T00:49:23.946Z,8.30
2022-07-25T00:51:52.858Z,8.63
2022-07-25T00:54:21.227Z,7.93
2022-07-25T00:56:49.839Z,9.17
2022-07-25T00:59:17.796Z,8.47
2022-07-25T01:01:48.295Z,8.07
2022-07-25T01:04:17.601Z,8.33
2022-07-25T01:06:46.988Z,8.57
2022-07-25T01:09:15.330Z,8.90
2022-07-25T01:11:43.582Z,9.03
2022-07-25T01:14:11.602Z,9.00
2022-07-25T01:16:41.190Z,9.20
2022-07-25T01:19:09.123Z,10.73
2022-07-25T01:21:41.379Z,9.20
2022-07-25T01:24:10.302Z,9.47
2022-07-25T01:26:38.716Z,8.53
2022-07-25T01:29:06.998Z,10.70
2022-07-25T01:31:35.076Z,9.30
2022-07-25T01:34:03.433Z,9.13
2022-07-25T01:36:31.786Z,9.03
2022-07-25T01:39:01.131Z,9.33
2022-07-25T01:41:28.981Z,9.77
2022-07-25T01:43:56.909Z,11.37
2022-07-25T01:46:24.841Z,12.43
2022-07-25T01:48:53.053Z,12.43
2022-07-25T01:51:21.210Z,10.60
2022-07-25T01:53:49.608Z,9.97
2022-07-25T01:56:19.422Z,8.77
2022-07-25T01:58:50.564Z,9.73
2022-07-25T02:01:19.393Z,9.87
2022-07-25T02:03:49.989Z,10.43
2022-07-25T02:06:20.895Z,11.53
2022-07-25T02:08:48.882Z,10.43
2022-07-25T02:11:19.165Z,11.20
2022-07-25T02:13:47.798Z,11.33
2022-07-25T02:16:15.690Z,11.47
2022-07-25T02:18:43.577Z,10.77
2022-07-25T02:21:14.250Z,10.33
2022-07-25T02:23:43.017Z,11.37
2022-07-25T02:26:10.910Z,11.37
2022-07-25T02:28:40.783Z,12.07
2022-07-25T02:31:09.141Z,13.50
2022-07-25T02:33:37.610Z,11.97
2022-07-25T02:36:05.780Z,14.03
2022-07-25T02:38:33.701Z,13.07
2022-07-25T02:41:01.671Z,14.33
2022-07-25T02:43:29.574Z,13.37
2022-07-25T02:45:58.909Z,14.13
2022-07-25T02:48:26.970Z,13.03
2022-07-25T02:50:54.895Z,12.63
2022-07-25T02:53:46.735Z,12.20
2022-07-25T02:56:10.792Z,14.03
2022-07-25T02:58:39.376Z,13.33
2022-07-25T03:01:09.365Z,12.90
2022-07-25T03:03:37.361Z,12.97
2022-07-25T03:06:05.644Z,14.60
2022-07-25T03:08:33.587Z,13.17
2022-07-25T03:11:01.427Z,12.97
2022-07-25T03:13:29.312Z,14.17
2022-07-25T03:15:57.157Z,12.70
2022-07-25T03:18:26.379Z,12.07
2022-07-25T03:20:54.375Z,11.90
2022-07-25T03:23:22.482Z,12.60
2022-07-25T03:25:50.362Z,14.03
2022-07-25T03:28:18.285Z,13.20
2022-07-25T03:30:46.211Z,12.23
2022-07-25T03:33:14.146Z,12.47
2022-07-25T03:35:43.410Z,13.57
2022-07-25T03:38:11.321Z,12.43
2022-07-25T03:40:39.604Z,12.50
2022-07-25T03:43:07.531Z,12.77
2022-07-25T03:45:35.912Z,12.70
2022-07-25T03:48:04.002Z,12.27
2022-07-25T03:50:32.039Z,12.50
2022-07-25T03:53:11.006Z,12.53
2022-07-25T03:55:39.600Z,12.50
2022-07-25T03:58:07.587Z,13.03
2022-07-25T04:00:35.489Z,12.13
2022-07-25T04:03:03.727Z,11.83
2022-07-25T04:05:31.658Z,11.83
2022-07-25T04:08:01.083Z,12.30
2022-07-25T04:10:28.969Z,12.97
2022-07-25T04:12:56.811Z,11.93
2022-07-25T04:15:24.798Z,12.53
2022-07-25T04:17:52.665Z,12.67
2022-07-25T04:20:21.980Z,12.13
2022-07-25T04:22:50.245Z,12.37
2022-07-25T04:25:19.473Z,11.97
2022-07-25T04:27:47.324Z,10.73
2022-07-25T04:30:24.092Z,10.97
2022-07-25T04:32:52.718Z,11.37
2022-07-25T04:35:20.708Z,10.80
2022-07-25T04:37:48.586Z,10.50
2022-07-25T04:40:16.642Z,10.00
2022-07-25T04:42:45.942Z,10.85
2022-07-25T04:45:17.819Z,10.55
2022-07-25T04:47:46.025Z,10.85
2022-07-25T04:50:14.767Z,10.90
2022-07-25T04:52:42.652Z,11.38
2022-07-25T04:55:11.206Z,11.38
2022-07-25T04:57:39.173Z,11.00
2022-07-25T05:00:11.102Z,11.15
2022-07-25T05:02:39.097Z,11.23
2022-07-25T05:05:08.545Z,12.52
2022-07-25T05:07:49.147Z,10.90
2022-07-25T05:10:17.041Z,11.05
2022-07-25T05:12:44.988Z,11.82
2022-07-25T05:15:14.676Z,11.90
2022-07-25T05:17:42.788Z,11.57
2022-07-25T05:20:12.245Z,10.45
2022-07-25T05:22:40.158Z,11.43
2022-07-25T05:25:09.804Z,11.23
2022-07-25T05:27:38.294Z,11.63
2022-07-25T05:30:08.174Z,12.18
2022-07-25T05:32:37.530Z,14.63
2022-07-25T05:35:07.940Z,15.27
2022-07-25T05:37:39.463Z,14.88
2022-07-25T05:40:08.854Z,12.85
2022-07-25T05:42:36.891Z,10.70
2022-07-25T05:45:05.507Z,10.52
2022-07-25T05:47:33.393Z,10.05
2022-07-25T05:50:03.523Z,9.95
2022-07-25T05:52:31.444Z,9.13
2022-07-25T05:54:59.355Z,9.10
2022-07-25T05:57:27.564Z,9.27
2022-07-25T05:59:55.493Z,9.45
2022-07-25T06:02:23.566Z,9.05
2022-07-25T06:04:51.610Z,9.90
2022-07-25T06:07:20.843Z,8.85
2022-07-25T06:09:48.710Z,9.77
2022-07-25T06:12:16.588Z,9.40
2022-07-25T06:14:45.362Z,8.73
2022-07-25T06:17:13.521Z,8.45
2022-07-25T06:19:41.429Z,9.63
2022-07-25T06:22:09.578Z,9.05
2022-07-25T06:24:38.902Z,9.60
2022-07-25T06:27:08.090Z,9.20
2022-07-25T06:29:36.243Z,8.68
2022-07-25T06:32:04.152Z,9.63
2022-07-25T06:34:32.055Z,9.10
2022-07-25T06:36:59.987Z,8.60
2022-07-25T06:39:28.603Z,9.10
2022-07-25T06:41:59.671Z,9.00
2022-07-25T06:44:27.643Z,8.77
2022-07-25T06:46:55.571Z,8.65
2022-07-25T06:49:23.461Z,9.10
2022-07-25T06:51:51.345Z,8.07
2022-07-25T06:54:19.228Z,8.38
2022-07-25T06:56:47.565Z,8.38
2022-07-25T06:59:16.821Z,7.90
2022-07-25T07:02:00.029Z,8.10
2022-07-25T07:04:27.872Z,8.00
2022-07-25T07:06:55.749Z,7.97
2022-07-25T07:09:23.593Z,8.75
2022-07-25T07:11:51.456Z,8.48
2022-07-25T07:14:20.661Z,8.40
2022-07-25T07:16:48.474Z,7.90
2022-07-25T07:19:18.047Z,8.23
2022-07-25T07:21:46.028Z,7.57
2022-07-25T07:24:24.262Z,7.88
2022-07-25T07:26:52.910Z,7.90
2022-07-25T07:29:22.581Z,8.13
2022-07-25T07:31:50.799Z,7.63
2022-07-25T07:34:18.933Z,7.97
2022-07-25T07:36:46.783Z,7.53
2022-07-25T07:39:16.549Z,7.60
2022-07-25T07:41:44.485Z,7.22
2022-07-25T07:44:12.408Z,7.20
2022-07-25T07:46:41.862Z,7.75
2022-07-25T07:49:10.530Z,7.43
2022-07-25T07:52:00.336Z,7.47
2022-07-25T07:54:46.128Z,7.13
2022-07-25T07:57:15.137Z,6.97
2022-07-25T07:59:43.088Z,6.47
2022-07-25T08:02:12.411Z,6.53
2022-07-25T08:04:40.287Z,6.50
2022-07-25T08:07:08.220Z,6.20
2022-07-25T08:09:36.086Z,6.30
2022-07-25T08:12:04.186Z,6.50
2022-07-25T08:14:32.924Z,6.32
2022-07-25T08:20:43.423Z,6.15
2022-07-25T08:23:12.014Z,6.10
2022-07-25T08:25:40.464Z,5.70
2022-07-25T08:28:08.367Z,6.57
2022-07-25T08:30:37.708Z,6.90
2022-07-25T08:33:08.033Z,6.85
2022-07-25T08:35:36.290Z,6.50
2022-07-25T08:38:06.545Z,7.20
2022-07-25T08:40:35.464Z,7.55
2022-07-25T08:43:03.273Z,7.10
2022-07-25T08:45:31.185Z,6.80
2022-07-25T08:47:59.005Z,6.55
2022-07-25T08:50:28.551Z,6.80
2022-07-25T08:53:16.668Z,6.40
2022-07-25T08:55:46.710Z,6.82
2022-07-25T08:58:16.748Z,6.75
2022-07-25T09:00:45.721Z,6.97
2022-07-25T09:07:06.236Z,6.57
2022-07-25T09:09:38.263Z,6.43
2022-07-25T09:12:35.466Z,11.57
2022-07-25T09:15:09.326Z,18.38
2022-07-25T09:17:39.654Z,7.55
2022-07-25T09:20:09.580Z,7.03
2022-07-25T09:22:45.360Z,7.25
2022-07-25T09:25:27.310Z,15.85
2022-07-25T09:27:57.298Z,7.30
2022-07-25T09:30:25.167Z,38.55
2022-07-25T09:33:01.511Z,26.98
2022-07-25T09:35:33.617Z,21.08
2022-07-25T09:38:13.457Z,8.90
2022-07-25T09:40:42.069Z,8.93
2022-07-25T09:44:14.624Z,14.77
2022-07-25T09:46:44.336Z,8.95
2022-07-25T09:49:14.474Z,32.53
2022-07-25T09:51:42.920Z,7.07
2022-07-25T09:54:10.962Z,7.63
2022-07-25T09:56:38.942Z,8.15
2022-07-25T09:59:07.080Z,17.77
2022-07-25T10:01:38.084Z,6.70
2022-07-25T10:04:17.460Z,6.53
2022-07-25T10:06:51.658Z,6.03
2022-07-25T10:09:19.941Z,6.10
2022-07-25T10:12:09.418Z,6.50
2022-07-25T10:14:38.869Z,6.95
2022-07-25T10:17:08.915Z,6.10
2022-07-25T10:19:49.187Z,5.78
2022-07-25T10:22:34.417Z,6.03
2022-07-25T10:25:13.917Z,6.00
2022-07-25T10:27:44.709Z,5.90
2022-07-25T10:30:21.199Z,5.60
2022-07-25T10:32:57.397Z,5.80
2022-07-25T10:35:27.830Z,5.28
2022-07-25T10:37:57.589Z,6.28
2022-07-25T10:40:30.834Z,5.78
2022-07-25T10:43:02.806Z,6.32
2022-07-25T10:45:40.363Z,5.72
2022-07-25T10:48:09.462Z,5.63
2022-07-25T10:50:55.854Z,6.35
2022-07-25T10:53:35.151Z,6.13
2022-07-25T10:56:08.842Z,5.88
2022-07-25T10:58:48.578Z,6.47
2022-07-25T11:01:21.686Z,10.13
2022-07-25T11:03:49.978Z,5.75
2022-07-25T11:06:31.381Z,4.97
2022-07-25T11:09:01.506Z,4.88
2022-07-25T11:11:37.709Z,4.82
2022-07-25T11:14:06.627Z,5.47
2022-07-25T11:16:34.598Z,5.32
2022-07-25T11:19:02.442Z,5.60
2022-07-25T11:21:31.949Z,5.13
2022-07-25T11:23:59.706Z,5.90
2022-07-25T11:26:27.503Z,5.18
2022-07-25T11:28:55.267Z,5.03
2022-07-25T11:31:23.996Z,5.50
2022-07-25T11:33:52.070Z,5.63
2022-07-25T11:36:20.148Z,5.32
2022-07-25T11:38:50.534Z,4.82
2022-07-25T11:41:29.722Z,4.97
2022-07-25T11:43:57.625Z,5.15
2022-07-25T11:46:25.878Z,5.07
2022-07-25T11:49:05.663Z,4.78
2022-07-25T11:51:38.616Z,4.95
2022-07-25T11:54:13.143Z,4.80
2022-07-25T11:56:43.347Z,5.35
2022-07-25T11:59:12.194Z,5.32
2022-07-25T12:01:41.737Z,5.43
2022-07-25T12:04:12.445Z,5.32
2022-07-25T12:06:40.410Z,5.30
2022-07-25T12:09:18.540Z,4.78
2022-07-25T12:11:48.507Z,4.80
2022-07-25T12:14:16.603Z,4.70
2022-07-25T12:16:44.425Z,4.20
2022-07-25T12:19:20.393Z,4.53
2022-07-25T12:21:48.178Z,4.38
2022-07-25T12:24:17.293Z,4.93
2022-07-25T12:26:45.126Z,4.10
2022-07-25T12:29:12.882Z,4.78
2022-07-25T12:31:40.640Z,4.90
2022-07-25T12:34:08.410Z,5.30
2022-07-25T12:36:41.100Z,4.85
2022-07-25T12:39:09.259Z,4.45
2022-07-25T12:41:39.954Z,4.97
2022-07-25T12:44:07.734Z,5.25
2022-07-25T12:46:36.037Z,5.18
2022-07-25T12:49:04.325Z,5.03
2022-07-25T12:51:32.459Z,5.30
2022-07-25T12:54:00.211Z,5.22
2022-07-25T12:56:28.041Z,5.32
2022-07-25T12:58:57.235Z,5.32
2022-07-25T13:01:25.154Z,5.82
2022-07-25T13:03:52.971Z,5.88
2022-07-25T13:06:20.862Z,5.90
2022-07-25T13:08:48.708Z,5.57
2022-07-25T13:11:16.738Z,5.07
2022-07-25T13:13:44.499Z,5.68
2022-07-25T13:16:14.195Z,5.68
2022-07-25T13:18:41.985Z,6.30
2022-07-25T13:21:09.783Z,6.05
2022-07-25T13:23:37.753Z,6.70
2022-07-25T13:26:05.598Z,6.70
2022-07-25T13:28:37.327Z,7.18
2022-07-25T13:31:06.903Z,7.43
2022-07-25T13:33:36.215Z,7.10
2022-07-25T13:36:04.290Z,7.15
2022-07-25T13:38:34.608Z,7.40
2022-07-25T13:41:02.717Z,6.53
2022-07-25T13:43:30.539Z,6.55
2022-07-25T13:45:58.537Z,7.28
2022-07-25T13:48:29.929Z,6.75
2022-07-25T13:51:00.403Z,6.70
2022-07-25T13:53:30.543Z,7.00
2022-07-25T13:55:59.419Z,6.57
2022-07-25T13:58:27.381Z,7.25
2022-07-25T14:00:55.433Z,6.80
2022-07-25T14:03:23.350Z,7.10
2022-07-25T14:05:51.527Z,6.82
2022-07-25T14:08:20.676Z,6.70
2022-07-25T14:10:48.541Z,6.15
2022-07-25T14:13:16.299Z,7.18
2022-07-25T14:15:44.901Z,6.65
2022-07-25T14:18:12.707Z,6.72
2022-07-25T14:20:40.540Z,7.50
2022-07-25T14:23:08.354Z,7.78
2022-07-25T14:25:38.851Z,7.20
2022-07-25T14:28:06.693Z,7.35
2022-07-25T14:30:34.595Z,7.68
2022-07-25T14:33:03.345Z,7.88
2022-07-25T14:35:32.681Z,7.93
2022-07-25T14:38:00.810Z,6.65
2022-07-25T14:40:28.686Z,7.57
2022-07-25T14:42:57.828Z,7.43
2022-07-25T14:45:25.671Z,7.38
2022-07-25T14:47:53.968Z,7.22
2022-07-25T14:50:22.026Z,7.20
2022-07-25T14:52:49.761Z,7.25
2022-07-25T14:55:18.811Z,7.53
2022-07-25T14:57:46.614Z,7.90
2022-07-25T15:00:16.565Z,6.95
2022-07-25T15:02:44.653Z,7.60
2022-07-25T15:05:12.575Z,7.00
2022-07-25T15:07:40.497Z,7.30
2022-07-25T15:10:08.874Z,7.32
2022-07-25T15:12:36.712Z,7.47
2022-07-25T15:15:05.212Z,7.80
2022-07-25T15:17:34.633Z,7.18
2022-07-25T15:20:02.433Z,7.03
2022-07-25T15:22:30.389Z,7.10
2022-07-25T15:25:29.786Z,7.05
2022-07-25T15:27:46.186Z,7.45
2022-07-25T15:30:14.603Z,6.80
2022-07-25T15:32:43.701Z,7.18
2022-07-25T15:35:11.489Z,6.70
2022-07-25T15:37:39.266Z,7.35
2022-07-25T15:40:07.925Z,6.78
2022-07-25T15:42:36.175Z,6.30
2022-07-25T15:45:31.619Z,6.75
2022-07-25T15:47:53.265Z,6.65
2022-07-25T15:50:21.585Z,7.30
2022-07-25T15:52:49.754Z,6.90
2022-07-25T15:55:17.692Z,7.07
2022-07-25T15:57:45.499Z,6.78
2022-07-25T16:00:14.251Z,7.05
2022-07-25T16:02:42.019Z,7.28
2022-07-25T16:05:11.523Z,7.15
2022-07-25T16:07:39.667Z,6.53
2022-07-25T16:10:07.879Z,6.60
2022-07-25T16:12:35.759Z,6.55
2022-07-25T16:15:04.180Z,6.18
2022-07-25T16:17:33.095Z,7.20
2022-07-25T16:20:01.038Z,6.68
2022-07-25T16:22:30.267Z,6.57
2022-07-25T16:25:01.076Z,6.50
2022-07-25T16:27:28.979Z,6.57
2022-07-25T16:29:57.785Z,6.72
2022-07-25T16:32:25.941Z,7.28
2022-07-25T16:34:53.746Z,6.93
2022-07-25T16:37:21.926Z,7.03
2022-07-25T16:39:51.067Z,6.35
2022-07-25T16:42:18.831Z,6.90
2022-07-25T16:44:47.756Z,6.80
2022-07-25T16:47:15.609Z,6.32
2022-07-25T16:49:43.389Z,6.53
2022-07-25T16:52:11.143Z,5.97
2022-07-25T16:54:38.894Z,6.40
2022-07-25T16:57:08.821Z,6.80
2022-07-25T16:59:36.628Z,7.07
2022-07-25T17:02:04.726Z,6.75
2022-07-25T17:04:33.483Z,6.75
2022-07-25T17:07:01.978Z,7.28
2022-07-25T17:09:29.779Z,6.93
2022-07-25T17:11:57.954Z,7.03
2022-07-25T17:14:30.168Z,6.75
2022-07-25T17:16:58.674Z,7.13
2022-07-25T17:19:26.744Z,6.88
2022-07-25T17:21:54.553Z,7.18
2022-07-25T17:24:22.304Z,6.65
2022-07-25T17:26:50.383Z,6.72
2022-07-25T17:29:18.161Z,7.13
2022-07-25T17:31:47.397Z,7.20
2022-07-25T17:34:15.200Z,6.30
2022-07-25T17:36:43.817Z,7.25
2022-07-25T17:39:11.570Z,7.32
2022-07-25T17:41:39.368Z,7.18
2022-07-25T17:44:11.605Z,7.05
2022-07-25T17:46:40.109Z,7.10
2022-07-25T17:49:09.308Z,6.55
2022-07-25T17:51:37.223Z,7.35
2022-07-25T17:54:05.880Z,6.57
2022-07-25T17:56:34.335Z,6.57
2022-07-25T17:59:02.839Z,7.20
2022-07-25T18:01:30.682Z,5.80
2022-07-25T18:03:58.739Z,6.20
2022-07-25T18:06:29.973Z,6.28
2022-07-25T18:08:58.198Z,6.57
2022-07-25T18:11:26.314Z,6.22
2022-07-25T18:13:54.094Z,6.60
2022-07-25T18:16:21.963Z,6.47
2022-07-25T18:18:49.787Z,5.95
2022-07-25T18:21:17.591Z,6.25
2022-07-25T18:23:46.686Z,5.97
2022-07-25T18:26:14.474Z,6.18
2022-07-25T18:28:42.254Z,6.57
2022-07-25T18:31:10.384Z,6.22
2022-07-25T18:33:38.406Z,5.78
2022-07-25T18:36:07.684Z,5.82
2022-07-25T18:38:36.567Z,5.63
2022-07-25T18:41:28.116Z,6.50
2022-07-25T18:43:54.303Z,6.20
2022-07-25T18:46:22.270Z,6.15
2022-07-25T18:48:51.189Z,5.90
2022-07-25T18:51:19.078Z,6.15
2022-07-25T18:53:48.560Z,5.90
2022-07-25T18:56:18.223Z,6.10
2022-07-25T18:58:46.225Z,5.70
2022-07-25T19:01:14.541Z,5.85
2022-07-25T19:03:42.339Z,5.20
2022-07-25T19:06:10.712Z,5.65
2022-07-25T19:08:38.748Z,5.22
2022-07-25T19:11:06.597Z,5.38
2022-07-25T19:13:49.513Z,5.32
2022-07-25T19:16:18.394Z,5.68
2022-07-25T19:18:46.258Z,5.60
2022-07-25T19:21:14.400Z,4.88
2022-07-25T19:23:45.720Z,4.78
2022-07-25T19:26:17.797Z,4.32
2022-07-25T19:28:47.190Z,4.65
2022-07-25T19:31:15.187Z,5.18
2022-07-25T19:33:45.421Z,5.28
2022-07-25T19:36:13.625Z,4.40
2022-07-25T19:38:41.386Z,4.70
2022-07-25T19:41:09.504Z,4.65
2022-07-25T19:43:37.268Z,5.30
2022-07-25T19:46:06.525Z,5.90
2022-07-25T19:48:34.627Z,4.95
2022-07-25T19:51:02.502Z,5.78
2022-07-25T19:53:30.430Z,5.63
2022-07-25T19:55:58.184Z,5.45
2022-07-25T19:58:26.018Z,5.43
2022-07-25T20:00:53.984Z,5.57
2022-07-25T20:03:23.777Z,5.43
2022-07-25T20:05:51.980Z,5.30
2022-07-25T20:08:19.800Z,5.10
2022-07-25T20:10:48.316Z,5.85
2022-07-25T20:13:16.258Z,4.80
2022-07-25T20:15:44.127Z,5.07
2022-07-25T20:18:17.469Z,5.25
2022-07-25T20:20:48.995Z,5.35
2022-07-25T20:23:16.799Z,5.00
2022-07-25T20:25:44.680Z,5.30
2022-07-25T20:28:12.698Z,4.43
2022-07-25T20:30:41.051Z,4.93
2022-07-25T20:33:09.905Z,4.43
2022-07-25T20:35:39.227Z,4.40
2022-07-25T20:38:09.741Z,4.22
2022-07-25T20:40:38.876Z,4.63
2022-07-25T20:43:09.010Z,4.13
2022-07-25T20:45:37.451Z,4.47
2022-07-25T20:48:05.648Z,4.43
2022-07-25T20:50:33.565Z,4.63
2022-07-25T20:53:01.326Z,3.92
2022-07-25T20:55:31.290Z,4.03
2022-07-25T20:57:59.515Z,3.92
2022-07-25T21:00:28.741Z,3.95
2022-07-25T21:02:56.651Z,3.83
2022-07-25T21:05:24.760Z,3.83
2022-07-25T21:07:52.767Z,3.77
2022-07-25T21:10:21.217Z,3.80
2022-07-25T21:12:50.339Z,3.17
2022-07-25T21:15:18.562Z,3.00
2022-07-25T21:17:46.323Z,3.63
2022-07-25T21:20:15.388Z,3.67
2022-07-25T21:22:43.896Z,3.53
2022-07-25T21:25:11.999Z,3.63
2022-07-25T21:27:40.196Z,3.63
2022-07-25T21:30:11.196Z,3.60
2022-07-25T21:32:40.356Z,3.63
2022-07-25T21:35:08.916Z,3.50
2022-07-25T21:37:36.782Z,3.47
2022-07-25T21:40:05.752Z,3.27
2022-07-25T21:42:33.648Z,3.58
2022-07-25T21:45:01.411Z,3.10
2022-07-25T21:47:30.509Z,3.20
2022-07-25T21:50:19.303Z,3.27
2022-07-25T21:52:52.976Z,3.43
2022-07-25T21:55:21.520Z,3.30
2022-07-25T21:57:49.466Z,3.70
2022-07-25T22:00:17.754Z,3.70
2022-07-25T22:02:47.674Z,3.63
2022-07-25T22:05:17.217Z,3.70
2022-07-25T22:07:46.708Z,3.77
2022-07-25T22:10:16.440Z,3.83
2022-07-25T22:12:44.459Z,3.80
2022-07-25T22:15:13.798Z,3.73
2022-07-25T22:17:49.052Z,4.00
2022-07-25T22:20:19.844Z,4.27
2022-07-25T22:22:47.708Z,3.90
2022-07-25T22:25:16.220Z,4.20
2022-07-25T22:27:44.337Z,4.53
2022-07-25T22:30:18.322Z,3.50
2022-07-25T22:32:47.668Z,3.70
2022-07-25T22:35:15.482Z,3.30
2022-07-25T22:37:44.631Z,3.63
2022-07-25T22:40:14.630Z,3.10
2022-07-25T22:42:42.565Z,3.85
2022-07-25T22:45:11.316Z,3.13
2022-07-25T22:47:39.085Z,3.67
2022-07-25T22:50:08.475Z,3.25
2022-07-25T22:52:36.229Z,3.50
2022-07-25T22:55:05.853Z,3.63
2022-07-25T22:57:36.801Z,3.80
2022-07-25T23:00:07.433Z,3.57
2022-07-25T23:02:35.454Z,3.13
2022-07-25T23:05:03.644Z,3.45
2022-07-25T23:07:31.394Z,3.13
2022-07-25T23:09:59.175Z,3.53
2022-07-25T23:12:28.829Z,3.00
2022-07-25T23:14:56.603Z,2.90
2022-07-25T23:17:24.714Z,3.55
2022-07-25T23:19:54.095Z,3.00
2022-07-25T23:22:23.743Z,2.95
2022-07-25T23:24:51.762Z,2.77
2022-07-25T23:27:19.545Z,3.30
2022-07-25T23:29:48.614Z,2.90
2022-07-25T23:32:16.406Z,2.70
2022-07-25T23:34:44.619Z,3.10
2022-07-25T23:37:12.386Z,3.10
2022-07-25T23:39:40.132Z,2.88
2022-07-25T23:42:08.061Z,3.00
2022-07-25T23:44:36.572Z,3.47
2022-07-25T23:47:10.215Z,2.88
2022-07-25T23:49:38.735Z,2.75
2022-07-25T23:52:06.705Z,2.93
2022-07-25T23:54:34.824Z,2.58
2022-07-25T23:57:03.131Z,3.00
2022-07-25T23:59:31.207Z,2.57
